Time;durP1;ratioP1;P1;durP2;ratioP2;P2;SDS_P1;SDS_P2;PMS_P1;PMS_P2;Temp;Humidity;BMP_temperature;BMP_pressure;BME280_temperature;BME280_humidity;BME280_pressure;Samples;Min_cycle;Max_cycle;Signal;HPM_P1;HPM_P2
2021/06/29 00:01:26;;;;;;;23.65;20.20;;;;;;;;;;5032910;28;20438;-63
2021/06/29 00:03:51;;;;;;;24.25;20.65;;;;;;;;;;5032850;28;20029;-65
2021/06/29 00:06:17;;;;;;;25.38;21.08;;;;;;;;;;5032479;28;20036;-64
2021/06/29 00:08:43;;;;;;;25.90;20.60;;;;;;;;;;5031421;28;20040;-63
2021/06/29 00:11:09;;;;;;;27.95;22.40;;;;;;;;;;5032555;28;20040;-63
2021/06/29 00:13:35;;;;;;;24.02;21.38;;;;;;;;;;5032881;28;20481;-65
2021/06/29 00:16:01;;;;;;;24.02;20.58;;;;;;;;;;5032447;28;20513;-63
2021/06/29 00:18:27;;;;;;;26.77;23.85;;;;;;;;;;5031444;28;20017;-62
2021/06/29 00:20:53;;;;;;;29.33;24.30;;;;;;;;;;5032407;28;20045;-62
2021/06/29 00:23:19;;;;;;;25.58;22.83;;;;;;;;;;5032455;28;20040;-64
2021/06/29 00:25:45;;;;;;;26.25;23.33;;;;;;;;;;5031092;28;20028;-64
2021/06/29 00:28:11;;;;;;;24.67;21.92;;;;;;;;;;5032281;28;20052;-64
2021/06/29 00:30:37;;;;;;;24.15;21.55;;;;;;;;;;5031193;28;20052;-63
2021/06/29 00:33:04;;;;;;;25.52;22.73;;;;;;;;;;5032212;28;20056;-64
2021/06/29 00:35:30;;;;;;;25.63;22.90;;;;;;;;;;5030652;28;20028;-62
2021/06/29 00:37:56;;;;;;;28.65;25.55;;;;;;;;;;5032278;28;20385;-64
2021/06/29 00:40:22;;;;;;;26.00;23.25;;;;;;;;;;5031945;28;20029;-64
2021/06/29 00:42:48;;;;;;;26.92;24.02;;;;;;;;;;5033491;28;20026;-64
2021/06/29 00:45:14;;;;;;;27.70;24.05;;;;;;;;;;5031936;28;20029;-64
2021/06/29 00:47:40;;;;;;;27.60;24.70;;;;;;;;;;5030677;28;20026;-64
2021/06/29 00:50:07;;;;;;;29.05;25.90;;;;;;;;;;5031799;28;20500;-63
2021/06/29 00:52:33;;;;;;;28.42;25.35;;;;;;;;;;5032245;28;20104;-63
2021/06/29 00:54:59;;;;;;;29.95;26.75;;;;;;;;;;5032182;28;20083;-63
2021/06/29 00:57:25;;;;;;;29.90;26.73;;;;;;;;;;5032310;28;20025;-63
2021/06/29 00:59:51;;;;;;;32.53;29.23;;;;;;;;;;5032179;28;20104;-63
2021/06/29 01:02:17;;;;;;;32.22;28.83;;;;;;;;;;5030680;28;20498;-63
2021/06/29 01:04:45;;;;;;;32.50;29.05;;;;;;;;;;5031896;28;20034;-62
2021/06/29 01:07:12;;;;;;;31.75;28.45;;;;;;;;;;5030506;28;20116;-63
2021/06/29 01:09:38;;;;;;;38.88;34.88;;;;;;;;;;5032344;28;20068;-64
2021/06/29 01:12:05;;;;;;;32.95;29.52;;;;;;;;;;5031618;28;20113;-63
2021/06/29 01:14:31;;;;;;;35.17;31.45;;;;;;;;;;5030506;28;20017;-63
2021/06/29 01:16:57;;;;;;;34.15;29.83;;;;;;;;;;5031808;28;20100;-63
2021/06/29 01:19:33;;;;;;;34.55;30.73;;;;;;;;;;5030783;28;20033;-63
2021/06/29 01:21:59;;;;;;;35.10;31.48;;;;;;;;;;5031641;28;20026;-63
2021/06/29 01:24:30;;;;;;;36.05;32.25;;;;;;;;;;5033494;28;20108;-64
2021/06/29 01:27:09;;;;;;;36.45;32.65;;;;;;;;;;5035731;28;20022;-63
2021/06/29 01:32:17;;;;;;;36.17;32.55;;;;;;;;;;5035736;28;20481;-63
2021/06/29 01:34:44;;;;;;;37.10;33.03;;;;;;;;;;5035514;28;20053;-64
2021/06/29 01:37:10;;;;;;;36.47;32.22;;;;;;;;;;5035777;28;20025;-64
2021/06/29 01:39:36;;;;;;;38.90;34.80;;;;;;;;;;5035711;28;20056;-64
2021/06/29 01:42:03;;;;;;;42.05;37.85;;;;;;;;;;5035382;28;20037;-64
2021/06/29 01:44:32;;;;;;;43.17;38.97;;;;;;;;;;5035289;28;20032;-64
2021/06/29 01:47:00;;;;;;;41.92;37.63;;;;;;;;;;5035111;28;20116;-63
2021/06/29 01:49:29;;;;;;;43.28;38.78;;;;;;;;;;5035381;28;20286;-64
2021/06/29 01:51:55;;;;;;;47.00;42.42;;;;;;;;;;5035323;28;20076;-64
2021/06/29 01:54:22;;;;;;;42.75;38.45;;;;;;;;;;5034157;28;20404;-63
2021/06/29 01:56:49;;;;;;;42.05;37.88;;;;;;;;;;5034090;28;20079;-64
2021/06/29 01:59:20;;;;;;;40.92;36.65;;;;;;;;;;5033818;28;20112;-64
2021/06/29 02:01:46;;;;;;;43.17;38.90;;;;;;;;;;5035057;28;20137;-63
2021/06/29 02:04:13;;;;;;;43.25;38.85;;;;;;;;;;5034957;28;20049;-63
2021/06/29 02:06:39;;;;;;;44.50;40.00;;;;;;;;;;5034978;28;20116;-64
2021/06/29 02:09:11;;;;;;;42.97;38.47;;;;;;;;;;5035004;28;20022;-63
2021/06/29 02:11:39;;;;;;;41.30;37.13;;;;;;;;;;5034933;28;20018;-64
2021/06/29 02:14:05;;;;;;;41.83;37.50;;;;;;;;;;5034837;28;20022;-64
2021/06/29 02:16:31;;;;;;;40.33;36.33;;;;;;;;;;5034642;28;20037;-64
2021/06/29 02:18:57;;;;;;;35.58;31.85;;;;;;;;;;5034722;28;20033;-64
2021/06/29 02:21:24;;;;;;;37.28;33.30;;;;;;;;;;5033747;28;20405;-64
2021/06/29 02:23:50;;;;;;;35.20;31.50;;;;;;;;;;5034807;28;20106;-64
2021/06/29 02:26:16;;;;;;;36.20;31.88;;;;;;;;;;5033151;28;20123;-63
2021/06/29 02:28:42;;;;;;;38.10;33.75;;;;;;;;;;5034611;28;20122;-64
2021/06/29 02:31:09;;;;;;;38.45;33.40;;;;;;;;;;5034437;28;20067;-63
2021/06/29 02:33:35;;;;;;;37.78;33.88;;;;;;;;;;5034548;28;20021;-64
2021/06/29 02:36:01;;;;;;;37.28;33.35;;;;;;;;;;5033055;28;20017;-64
2021/06/29 02:38:27;;;;;;;38.55;34.40;;;;;;;;;;5034511;28;20036;-64
2021/06/29 02:40:54;;;;;;;36.53;32.83;;;;;;;;;;5034246;28;20033;-64
2021/06/29 02:43:20;;;;;;;37.10;32.85;;;;;;;;;;5034281;28;20029;-64
2021/06/29 02:45:46;;;;;;;35.85;32.17;;;;;;;;;;5032804;28;20029;-62
2021/06/29 02:48:12;;;;;;;37.65;33.63;;;;;;;;;;5034216;28;20045;-64
2021/06/29 02:50:38;;;;;;;37.50;33.47;;;;;;;;;;5034665;28;20017;-64
2021/06/29 02:53:05;;;;;;;39.85;35.67;;;;;;;;;;5033399;28;20160;-64
2021/06/29 02:55:31;;;;;;;41.08;36.83;;;;;;;;;;5032998;28;20516;-63
2021/06/29 02:57:57;;;;;;;40.15;35.95;;;;;;;;;;5034636;28;20029;-63
2021/06/29 03:00:23;;;;;;;43.88;39.38;;;;;;;;;;5034562;28;20504;-64
2021/06/29 03:02:49;;;;;;;44.75;38.88;;;;;;;;;;5034424;28;20061;-63
2021/06/29 03:05:16;;;;;;;43.97;39.38;;;;;;;;;;5033783;28;20057;-64
2021/06/29 03:07:42;;;;;;;45.70;40.83;;;;;;;;;;5032586;28;20032;-64
2021/06/29 03:10:09;;;;;;;44.58;40.08;;;;;;;;;;5034270;28;20025;-65
2021/06/29 03:12:35;;;;;;;47.47;42.58;;;;;;;;;;5034492;28;20030;-63
2021/06/29 03:15:02;;;;;;;49.72;44.67;;;;;;;;;;5033984;28;20026;-64
2021/06/29 03:17:28;;;;;;;46.60;41.83;;;;;;;;;;5033783;28;20392;-65
2021/06/29 03:19:54;;;;;;;41.53;37.13;;;;;;;;;;5034308;28;20033;-65
2021/06/29 03:22:21;;;;;;;41.08;36.67;;;;;;;;;;5034062;28;20100;-65
2021/06/29 03:24:47;;;;;;;42.53;35.80;;;;;;;;;;5033931;28;20496;-62
2021/06/29 03:27:13;;;;;;;42.17;36.13;;;;;;;;;;5034439;28;20440;-63
2021/06/29 03:29:39;;;;;;;40.25;36.05;;;;;;;;;;5033505;28;20029;-62
2021/06/29 03:32:05;;;;;;;44.88;36.88;;;;;;;;;;5034555;28;20079;-63
2021/06/29 03:34:31;;;;;;;41.72;37.30;;;;;;;;;;5034150;28;20485;-62
2021/06/29 03:37:00;;;;;;;40.33;35.28;;;;;;;;;;5032175;28;20082;-62
2021/06/29 03:39:26;;;;;;;43.10;37.05;;;;;;;;;;5033349;28;20017;-63
2021/06/29 03:41:52;;;;;;;40.58;36.15;;;;;;;;;;5032844;28;20045;-63
2021/06/29 03:44:18;;;;;;;41.28;37.05;;;;;;;;;;5033029;28;20100;-63
2021/06/29 03:46:44;;;;;;;39.67;35.45;;;;;;;;;;5032570;28;20103;-62
2021/06/29 03:49:10;;;;;;;39.72;33.88;;;;;;;;;;5033088;28;20029;-63
2021/06/29 03:51:36;;;;;;;42.00;35.17;;;;;;;;;;5032966;28;20018;-63
2021/06/29 03:54:03;;;;;;;38.15;34.15;;;;;;;;;;5033110;28;20049;-63
2021/06/29 03:56:31;;;;;;;53.25;36.20;;;;;;;;;;5032755;28;20259;-62
2021/06/29 03:59:01;;;;;;;44.20;36.90;;;;;;;;;;5032724;28;20032;-63
2021/06/29 04:01:27;;;;;;;39.10;33.85;;;;;;;;;;5031590;28;20268;-63
2021/06/29 04:03:54;;;;;;;38.72;34.63;;;;;;;;;;5032737;28;20436;-63
2021/06/29 04:06:24;;;;;;;41.05;36.75;;;;;;;;;;5032384;28;20160;-63
2021/06/29 04:08:50;;;;;;;37.63;33.35;;;;;;;;;;5032736;28;20104;-63
2021/06/29 04:11:16;;;;;;;40.63;33.70;;;;;;;;;;5032714;28;20022;-63
2021/06/29 04:13:42;;;;;;;44.30;37.08;;;;;;;;;;5032412;28;20024;-63
2021/06/29 04:16:08;;;;;;;40.75;34.92;;;;;;;;;;5032343;28;20389;-63
2021/06/29 04:18:34;;;;;;;42.20;37.63;;;;;;;;;;5032572;28;20021;-63
2021/06/29 04:21:00;;;;;;;41.47;35.88;;;;;;;;;;5031036;28;20477;-63
2021/06/29 04:23:26;;;;;;;40.78;36.05;;;;;;;;;;5032551;28;20022;-62
2021/06/29 04:25:52;;;;;;;43.88;35.40;;;;;;;;;;5031128;28;20034;-62
2021/06/29 04:28:18;;;;;;;38.58;34.05;;;;;;;;;;5032071;28;20032;-63
2021/06/29 04:30:44;;;;;;;41.25;35.67;;;;;;;;;;5032264;28;20017;-64
2021/06/29 04:33:10;;;;;;;41.42;34.80;;;;;;;;;;5032108;28;20079;-64
2021/06/29 04:35:36;;;;;;;39.70;35.47;;;;;;;;;;5031872;28;20026;-64
2021/06/29 04:38:02;;;;;;;40.75;34.58;;;;;;;;;;5032034;28;20053;-64
2021/06/29 04:40:28;;;;;;;40.35;34.28;;;;;;;;;;5031801;28;20021;-64
2021/06/29 04:42:54;;;;;;;36.38;32.38;;;;;;;;;;5032265;28;20036;-64
2021/06/29 04:45:22;;;;;;;37.65;33.55;;;;;;;;;;5031638;28;20030;-63
2021/06/29 04:47:48;;;;;;;36.65;32.63;;;;;;;;;;5031915;28;20029;-63
2021/06/29 04:50:17;;;;;;;34.72;27.83;;;;;;;;;;5031695;28;20045;-63
2021/06/29 04:52:44;;;;;;;36.17;29.38;;;;;;;;;;5030224;28;20025;-63
2021/06/29 04:55:10;;;;;;;34.13;27.75;;;;;;;;;;5031597;28;20032;-64
2021/06/29 04:57:36;;;;;;;32.63;27.55;;;;;;;;;;5029498;28;20029;-64
2021/06/29 05:00:07;;;;;;;34.33;26.50;;;;;;;;;;5031647;28;20024;-64
2021/06/29 05:02:33;;;;;;;40.50;26.48;;;;;;;;;;5031485;28;20501;-63
2021/06/29 05:04:59;;;;;;;35.90;27.58;;;;;;;;;;5031121;28;20113;-64
2021/06/29 05:07:25;;;;;;;32.33;28.67;;;;;;;;;;5031173;28;20032;-63
2021/06/29 05:09:51;;;;;;;31.63;27.25;;;;;;;;;;5031232;28;20041;-63
2021/06/29 05:12:18;;;;;;;28.90;25.55;;;;;;;;;;5031074;28;20024;-61
2021/06/29 05:14:44;;;;;;;32.47;27.55;;;;;;;;;;5031444;28;20017;-62
2021/06/29 05:17:09;;;;;;;35.17;27.30;;;;;;;;;;5031054;28;20026;-62
2021/06/29 05:19:35;;;;;;;34.72;28.63;;;;;;;;;;5029425;28;20369;-62
2021/06/29 05:22:01;;;;;;;29.40;26.20;;;;;;;;;;5031570;28;20060;-59
2021/06/29 05:24:27;;;;;;;34.05;27.42;;;;;;;;;;5031305;28;20090;-63
2021/06/29 05:26:53;;;;;;;33.83;26.55;;;;;;;;;;5031317;28;20060;-63
2021/06/29 05:29:19;;;;;;;28.73;25.05;;;;;;;;;;5031619;28;20026;-63
2021/06/29 05:31:45;;;;;;;29.63;24.95;;;;;;;;;;5031072;28;20079;-61
2021/06/29 05:34:11;;;;;;;29.40;24.42;;;;;;;;;;5031089;28;20021;-63
2021/06/29 05:36:37;;;;;;;29.55;24.13;;;;;;;;;;5031350;28;20048;-62
2021/06/29 05:39:04;;;;;;;29.30;22.95;;;;;;;;;;5031346;28;20029;-64
2021/06/29 05:41:30;;;;;;;30.42;24.27;;;;;;;;;;5030934;28;20131;-63
2021/06/29 05:43:57;;;;;;;29.42;23.27;;;;;;;;;;5029440;28;20342;-63
2021/06/29 05:46:23;;;;;;;30.65;21.77;;;;;;;;;;5029367;28;20026;-63
2021/06/29 05:48:51;;;;;;;25.73;21.85;;;;;;;;;;5030734;28;20197;-64
2021/06/29 05:51:17;;;;;;;28.27;21.88;;;;;;;;;;5031124;28;20397;-64
2021/06/29 05:53:43;;;;;;;26.80;21.05;;;;;;;;;;5029688;28;20021;-64
2021/06/29 05:56:12;;;;;;;27.55;20.05;;;;;;;;;;5030230;28;20618;-64
2021/06/29 05:58:38;;;;;;;27.63;20.15;;;;;;;;;;5030682;28;20021;-64
2021/06/29 06:01:08;;;;;;;25.58;21.10;;;;;;;;;;5030099;28;20032;-64
2021/06/29 06:03:34;;;;;;;31.98;20.10;;;;;;;;;;5030353;28;20031;-64
2021/06/29 06:06:01;;;;;;;24.80;19.38;;;;;;;;;;5030559;28;20049;-64
2021/06/29 06:08:27;;;;;;;29.70;21.67;;;;;;;;;;5029603;28;20034;-64
2021/06/29 06:10:54;;;;;;;25.70;19.00;;;;;;;;;;5032937;28;20104;-63
2021/06/29 06:13:20;;;;;;;24.80;18.20;;;;;;;;;;5034439;28;20083;-62
2021/06/29 06:15:46;;;;;;;23.88;18.17;;;;;;;;;;5033713;28;20282;-64
2021/06/29 06:18:12;;;;;;;24.33;19.80;;;;;;;;;;5034261;28;20040;-64
2021/06/29 06:20:38;;;;;;;24.55;18.70;;;;;;;;;;5034255;28;20026;-63
2021/06/29 06:23:05;;;;;;;25.27;20.20;;;;;;;;;;5034146;28;20109;-64
2021/06/29 06:25:32;;;;;;;26.10;19.73;;;;;;;;;;5033965;28;20132;-64
2021/06/29 06:27:58;;;;;;;24.15;20.42;;;;;;;;;;5033713;28;20342;-63
2021/06/29 06:30:24;;;;;;;25.83;20.55;;;;;;;;;;5032257;28;20026;-64
2021/06/29 06:32:50;;;;;;;27.02;21.17;;;;;;;;;;5034035;28;20028;-64
2021/06/29 06:35:17;;;;;;;25.20;22.33;;;;;;;;;;5033241;28;20116;-63
2021/06/29 06:37:43;;;;;;;25.75;22.17;;;;;;;;;;5032530;28;20025;-63
2021/06/29 06:40:09;;;;;;;25.00;21.42;;;;;;;;;;5034078;28;20359;-64
2021/06/29 06:42:35;;;;;;;25.38;21.92;;;;;;;;;;5034445;28;20049;-64
2021/06/29 06:45:01;;;;;;;32.13;23.30;;;;;;;;;;5033365;28;20033;-63
2021/06/29 06:47:27;;;;;;;26.70;22.63;;;;;;;;;;5030316;28;20034;-65
2021/06/29 06:49:53;;;;;;;26.95;24.05;;;;;;;;;;5033208;28;20013;-64
2021/06/29 06:52:20;;;;;;;27.77;23.20;;;;;;;;;;5033576;28;20113;-64
2021/06/29 06:54:46;;;;;;;25.58;21.92;;;;;;;;;;5015665;28;20025;-64
2021/06/29 06:57:12;;;;;;;27.52;22.15;;;;;;;;;;5018589;28;20140;-64
2021/06/29 06:59:38;;;;;;;26.77;21.27;;;;;;;;;;4996568;28;20125;-63
2021/06/29 07:02:04;;;;;;;26.05;21.15;;;;;;;;;;5013902;28;20105;-64
2021/06/29 07:04:30;;;;;;;29.10;22.63;;;;;;;;;;5018303;28;20021;-64
2021/06/29 07:06:57;;;;;;;27.98;22.75;;;;;;;;;;5033531;28;20026;-64
2021/06/29 07:09:23;;;;;;;27.65;22.35;;;;;;;;;;5033177;28;20104;-63
2021/06/29 07:11:49;;;;;;;26.40;23.45;;;;;;;;;;5033248;28;20021;-64
2021/06/29 07:14:15;;;;;;;28.63;24.80;;;;;;;;;;5033825;28;20144;-64
2021/06/29 07:16:42;;;;;;;30.10;26.80;;;;;;;;;;5033437;28;20056;-64
2021/06/29 07:19:08;;;;;;;30.02;26.77;;;;;;;;;;5015594;28;20025;-63
2021/06/29 07:21:34;;;;;;;30.60;24.58;;;;;;;;;;5010284;28;20018;-64
2021/06/29 07:24:00;;;;;;;37.17;29.75;;;;;;;;;;4995621;28;20069;-63
2021/06/29 07:26:26;;;;;;;36.15;29.40;;;;;;;;;;5012964;28;20042;-63
2021/06/29 07:28:52;;;;;;;39.08;32.53;;;;;;;;;;5013097;28;20022;-63
2021/06/29 07:31:18;;;;;;;39.92;32.97;;;;;;;;;;4995589;28;20028;-64
2021/06/29 07:33:45;;;;;;;40.35;33.05;;;;;;;;;;5013625;28;20108;-64
2021/06/29 07:36:12;;;;;;;42.38;32.15;;;;;;;;;;5012896;28;20080;-64
2021/06/29 07:38:38;;;;;;;38.17;31.58;;;;;;;;;;4995643;28;20025;-64
2021/06/29 07:41:04;;;;;;;42.00;33.85;;;;;;;;;;5012752;28;20563;-63
2021/06/29 07:43:30;;;;;;;39.95;26.92;;;;;;;;;;5012851;28;20057;-63
2021/06/29 07:45:56;;;;;;;42.63;33.92;;;;;;;;;;4995335;28;20056;-65
2021/06/29 07:48:22;;;;;;;43.47;34.97;;;;;;;;;;5003406;28;20508;-64
2021/06/29 07:50:48;;;;;;;45.20;34.70;;;;;;;;;;5015302;28;20022;-64
2021/06/29 07:53:14;;;;;;;44.30;32.90;;;;;;;;;;5014923;28;20508;-63
2021/06/29 07:55:40;;;;;;;43.60;33.40;;;;;;;;;;5033051;28;20026;-64
2021/06/29 07:58:06;;;;;;;44.03;34.95;;;;;;;;;;5032661;28;20061;-64
2021/06/29 08:00:35;;;;;;;39.75;32.58;;;;;;;;;;5014554;28;20025;-64
2021/06/29 08:03:01;;;;;;;39.47;28.83;;;;;;;;;;5032536;28;20022;-63
2021/06/29 08:05:27;;;;;;;41.72;34.38;;;;;;;;;;5032529;28;20489;-63
2021/06/29 08:07:53;;;;;;;41.35;32.88;;;;;;;;;;5032380;28;20032;-64
2021/06/29 08:10:19;;;;;;;38.45;32.70;;;;;;;;;;5031847;28;20025;-64
2021/06/29 08:12:46;;;;;;;38.58;33.58;;;;;;;;;;5032018;28;20034;-64
2021/06/29 08:15:12;;;;;;;39.13;33.50;;;;;;;;;;5014161;28;20044;-64
2021/06/29 08:17:38;;;;;;;40.25;32.63;;;;;;;;;;5032298;28;20033;-62
2021/06/29 08:20:05;;;;;;;39.08;30.98;;;;;;;;;;5032260;28;20030;-62
2021/06/29 08:22:31;;;;;;;41.15;34.67;;;;;;;;;;5031930;28;20108;-64
2021/06/29 08:24:57;;;;;;;43.13;34.20;;;;;;;;;;5031763;28;20068;-64
2021/06/29 08:27:23;;;;;;;45.20;35.10;;;;;;;;;;5031882;28;20033;-64
2021/06/29 08:29:52;;;;;;;42.97;35.47;;;;;;;;;;5032034;28;20022;-64
2021/06/29 08:32:18;;;;;;;43.58;36.83;;;;;;;;;;5030970;28;20029;-64
2021/06/29 08:34:44;;;;;;;44.83;35.42;;;;;;;;;;5013848;28;20022;-62
2021/06/29 08:37:11;;;;;;;44.05;37.20;;;;;;;;;;5031832;28;20508;-64
2021/06/29 08:39:37;;;;;;;45.78;38.30;;;;;;;;;;5031802;28;20033;-62
2021/06/29 08:42:03;;;;;;;43.17;36.25;;;;;;;;;;5032421;28;20069;-64
2021/06/29 08:44:29;;;;;;;45.10;36.92;;;;;;;;;;5017187;28;20104;-64
2021/06/29 08:46:55;;;;;;;45.80;38.08;;;;;;;;;;5035179;28;20036;-64
2021/06/29 08:49:21;;;;;;;49.65;41.38;;;;;;;;;;5034158;28;20393;-63
2021/06/29 08:51:50;;;;;;;47.97;41.13;;;;;;;;;;5032345;28;20028;-64
2021/06/29 08:54:16;;;;;;;52.10;43.05;;;;;;;;;;5031621;28;20096;-63
2021/06/29 08:56:43;;;;;;;47.45;41.50;;;;;;;;;;5031579;28;20031;-62
2021/06/29 08:59:09;;;;;;;50.03;43.58;;;;;;;;;;5031844;28;20494;-64
2021/06/29 09:01:35;;;;;;;53.70;44.50;;;;;;;;;;5031493;28;20453;-64
2021/06/29 09:04:00;;;;;;;50.00;42.22;;;;;;;;;;5031499;28;20021;-64
2021/06/29 09:06:40;;;;;;;55.50;45.97;;;;;;;;;;5030918;28;20029;-64
2021/06/29 09:09:22;;;;;;;55.33;47.33;;;;;;;;;;5031379;28;20025;-63
2021/06/29 09:11:48;;;;;;;50.35;44.83;;;;;;;;;;5031252;28;20036;-64
2021/06/29 09:14:17;;;;;;;47.35;42.25;;;;;;;;;;5031200;28;20076;-64
2021/06/29 09:16:45;;;;;;;47.97;41.92;;;;;;;;;;5013940;28;20415;-65
2021/06/29 09:19:12;;;;;;;43.53;38.85;;;;;;;;;;5031560;28;20040;-65
2021/06/29 09:21:38;;;;;;;41.20;36.25;;;;;;;;;;5031146;28;20057;-65
2021/06/29 09:24:05;;;;;;;44.22;38.40;;;;;;;;;;5013627;28;20132;-66
2021/06/29 09:26:31;;;;;;;42.95;38.53;;;;;;;;;;5031069;28;20022;-68
2021/06/29 09:28:58;;;;;;;41.17;35.83;;;;;;;;;;5013491;28;20022;-66
2021/06/29 09:31:27;;;;;;;41.13;36.83;;;;;;;;;;5030682;28;20028;-65
2021/06/29 09:33:55;;;;;;;39.20;35.00;;;;;;;;;;5030853;28;20105;-64
2021/06/29 09:36:22;;;;;;;39.00;34.78;;;;;;;;;;5030786;28;20390;-67
2021/06/29 09:38:49;;;;;;;38.22;34.10;;;;;;;;;;5013017;28;20029;-65
2021/06/29 09:41:19;;;;;;;35.13;31.33;;;;;;;;;;5013058;28;20362;-65
2021/06/29 09:43:46;;;;;;;33.25;29.35;;;;;;;;;;5031178;28;20554;-66
2021/06/29 09:46:16;;;;;;;30.58;27.13;;;;;;;;;;5034738;28;20482;-66
2021/06/29 09:48:45;;;;;;;26.90;23.05;;;;;;;;;;5034634;28;20490;-66
2021/06/29 09:51:12;;;;;;;;;;;;;;;;;;5034828;28;20490;-66
2021/06/29 09:53:40;;;;;;;24.42;20.55;;;;;;;;;;5034862;28;19909;-66
2021/06/29 09:56:11;;;;;;;25.45;22.55;;;;;;;;;;5016456;28;20389;-67
2021/06/29 09:58:37;;;;;;;26.15;20.33;;;;;;;;;;5034500;28;20030;-67
2021/06/29 10:01:03;;;;;;;25.45;21.30;;;;;;;;;;5034418;28;20087;-66
2021/06/29 10:03:32;;;;;;;24.80;21.23;;;;;;;;;;5034432;28;20033;-66
2021/06/29 10:05:59;;;;;;;25.98;21.63;;;;;;;;;;5034504;28;20017;-67
2021/06/29 10:08:27;;;;;;;27.88;24.20;;;;;;;;;;5034256;28;20033;-67
2021/06/29 10:11:09;;;;;;;26.60;22.80;;;;;;;;;;5034192;28;20075;-66
2021/06/29 10:13:41;;;;;;;25.10;21.27;;;;;;;;;;5016381;28;20091;-66
2021/06/29 10:16:08;;;;;;;24.58;21.25;;;;;;;;;;5034079;28;20018;-67
2021/06/29 10:21:23;;;;;;;24.98;20.40;;;;;;;;;;5034470;28;20589;-67
2021/06/29 10:23:57;;;;;;;24.85;20.98;;;;;;;;;;5016473;28;20041;-67
2021/06/29 10:26:24;;;;;;;22.98;20.48;;;;;;;;;;5016096;28;20642;-65
2021/06/29 10:28:51;;;;;;;24.20;20.23;;;;;;;;;;5016047;28;20132;-65
2021/06/29 10:31:22;;;;;;;23.23;19.70;;;;;;;;;;5034119;28;20025;-65
2021/06/29 10:33:48;;;;;;;29.95;22.52;;;;;;;;;;5033966;28;20025;-65
2021/06/29 10:36:15;;;;;;;26.00;23.02;;;;;;;;;;5016127;28;20022;-67
2021/06/29 10:38:41;;;;;;;25.48;22.77;;;;;;;;;;5033775;28;20100;-65
2021/06/29 10:41:07;;;;;;;27.05;23.15;;;;;;;;;;5016069;28;20033;-64
2021/06/29 10:43:38;;;;;;;25.58;22.88;;;;;;;;;;5033192;28;20026;-66
2021/06/29 10:46:04;;;;;;;26.33;21.73;;;;;;;;;;5033597;28;20485;-66
2021/06/29 10:48:30;;;;;;;25.70;20.70;;;;;;;;;;5033450;28;20037;-66
2021/06/29 10:51:00;;;;;;;26.17;22.88;;;;;;;;;;5015140;28;20391;-67
2021/06/29 10:53:37;;;;;;;26.58;20.95;;;;;;;;;;5033455;28;20026;-69
2021/06/29 10:56:05;;;;;;;24.45;21.00;;;;;;;;;;5032558;28;20449;-67
2021/06/29 10:58:35;;;;;;;26.58;22.00;;;;;;;;;;5033452;28;20025;-66
2021/06/29 11:01:19;;;;;;;26.45;23.63;;;;;;;;;;5015318;28;20041;-66
2021/06/29 11:03:45;;;;;;;26.88;23.98;;;;;;;;;;5033030;28;20036;-66
2021/06/29 11:06:11;;;;;;;28.92;25.83;;;;;;;;;;5033031;28;20092;-66
2021/06/29 11:08:48;;;;;;;29.67;24.65;;;;;;;;;;5015291;28;20022;-66
2021/06/29 11:11:14;;;;;;;27.98;25.08;;;;;;;;;;5015531;28;20199;-66
2021/06/29 11:13:40;;;;;;;24.85;21.73;;;;;;;;;;5015719;28;20029;-66
2021/06/29 11:16:06;;;;;;;30.40;22.23;;;;;;;;;;5015333;28;20044;-66
2021/06/29 11:18:35;;;;;;;24.02;20.73;;;;;;;;;;5033210;28;20056;-66
2021/06/29 11:21:04;;;;;;;24.88;21.30;;;;;;;;;;5032961;28;20021;-67
2021/06/29 11:23:31;;;;;;;24.13;20.92;;;;;;;;;;5033420;28;20166;-67
2021/06/29 11:26:00;;;;;;;26.23;22.15;;;;;;;;;;5033227;28;20374;-67
2021/06/29 11:28:30;;;;;;;23.85;21.25;;;;;;;;;;5032890;28;20108;-67
2021/06/29 11:31:05;;;;;;;26.50;22.30;;;;;;;;;;5014692;28;20017;-66
2021/06/29 11:33:32;;;;;;;25.70;22.98;;;;;;;;;;5032510;28;20032;-67
2021/06/29 11:35:58;;;;;;;28.00;22.38;;;;;;;;;;5014733;28;20117;-67
2021/06/29 11:38:31;;;;;;;24.38;21.48;;;;;;;;;;5032475;28;20036;-67
2021/06/29 11:41:17;;;;;;;23.02;20.50;;;;;;;;;;5032688;28;20037;-66
2021/06/29 11:43:43;;;;;;;22.40;19.33;;;;;;;;;;5014652;28;20080;-67
2021/06/29 11:46:09;;;;;;;20.98;17.85;;;;;;;;;;5032125;28;20068;-67
2021/06/29 11:48:45;;;;;;;20.15;17.33;;;;;;;;;;5014435;28;20068;-67
2021/06/29 11:51:11;;;;;;;23.10;18.08;;;;;;;;;;5032451;28;20022;-67
2021/06/29 11:53:39;;;;;;;23.45;19.02;;;;;;;;;;5032423;28;20028;-67
2021/06/29 11:56:10;;;;;;;24.63;20.23;;;;;;;;;;5032439;28;20032;-67
2021/06/29 11:58:44;;;;;;;24.40;20.30;;;;;;;;;;5014900;28;20061;-67
2021/06/29 12:01:10;;;;;;;22.73;19.42;;;;;;;;;;5032673;28;20021;-67
2021/06/29 12:03:36;;;;;;;25.88;21.83;;;;;;;;;;5032440;28;20029;-66
2021/06/29 12:06:02;;;;;;;25.80;22.45;;;;;;;;;;5031829;28;20509;-67
2021/06/29 12:08:28;;;;;;;27.00;23.40;;;;;;;;;;5031578;28;20056;-67
2021/06/29 12:10:57;;;;;;;28.00;24.83;;;;;;;;;;5032422;28;20025;-67
2021/06/29 12:13:29;;;;;;;30.70;27.40;;;;;;;;;;5028826;28;20041;-65
2021/06/29 12:15:56;;;;;;;28.23;25.17;;;;;;;;;;5009682;28;20018;-66
2021/06/29 12:18:23;;;;;;;29.92;26.70;;;;;;;;;;5009805;28;20026;-67
2021/06/29 12:20:50;;;;;;;28.42;25.27;;;;;;;;;;5010485;28;20050;-65
2021/06/29 12:23:18;;;;;;;33.22;28.92;;;;;;;;;;4992083;28;20397;-66
2021/06/29 12:25:54;;;;;;;31.38;28.17;;;;;;;;;;5009157;28;20044;-67
2021/06/29 12:28:22;;;;;;;29.85;26.15;;;;;;;;;;5009268;28;20037;-67
2021/06/29 12:30:49;;;;;;;32.85;29.38;;;;;;;;;;5009284;28;20614;-67
2021/06/29 12:33:18;;;;;;;32.53;29.02;;;;;;;;;;5009447;28;20017;-67
2021/06/29 12:35:48;;;;;;;32.67;29.27;;;;;;;;;;5009150;28;20136;-66
2021/06/29 12:38:17;;;;;;;31.08;27.73;;;;;;;;;;5016410;28;20022;-66
2021/06/29 12:40:44;;;;;;;34.15;30.65;;;;;;;;;;5017128;28;20041;-66
2021/06/29 12:43:21;;;;;;;34.63;31.13;;;;;;;;;;5056913;23;20040;-69
2021/06/29 12:45:48;;;;;;;33.63;30.20;;;;;;;;;;5028404;28;20025;-70
2021/06/29 12:48:14;;;;;;;34.55;30.92;;;;;;;;;;5027918;28;20083;-69
2021/06/29 12:50:40;;;;;;;34.40;30.80;;;;;;;;;;5054392;28;20029;-68
2021/06/29 12:53:06;;;;;;;32.40;29.00;;;;;;;;;;5040129;28;20021;-67
2021/06/29 12:55:32;;;;;;;33.83;30.30;;;;;;;;;;5042848;28;20025;-67
2021/06/29 12:58:01;;;;;;;35.40;31.80;;;;;;;;;;5050039;28;20033;-67
2021/06/29 13:00:28;;;;;;;33.80;30.25;;;;;;;;;;5048585;28;20029;-68
2021/06/29 13:02:54;;;;;;;34.13;30.63;;;;;;;;;;5047654;28;20033;-67
2021/06/29 13:05:22;;;;;;;33.95;30.55;;;35.00;92.50;;;;;;5045564;28;20147;-66
2021/06/29 13:07:48;;;;;;;35.67;32.13;;;28.40;99.90;;;;;;5047892;28;20439;-67
2021/06/29 13:10:15;;;;;;;34.70;31.08;;;;;;;;;;5038626;28;20029;-68
2021/06/29 13:12:41;;;;;;;34.83;31.23;;;;;;;;;;5029495;28;20064;-67
2021/06/29 13:15:09;;;;;;;36.55;32.88;;;;;;;;;;5029808;28;20170;-67
2021/06/29 13:17:56;;;;;;;37.27;33.57;;;;;;;;;;5029244;28;20044;-67
2021/06/29 13:20:23;;;;;;;32.15;28.95;;;;;;;;;;5041071;28;20279;-68
2021/06/29 13:22:53;;;;;;;32.75;29.33;;;;;;;;;;5035219;28;20050;-67
2021/06/29 13:25:36;;;;;;;28.45;25.55;;;;;;;;;;5034993;28;20374;-64
2021/06/29 13:28:08;;;;;;;28.08;25.30;;;;;;;;;;5031541;28;20034;-64
2021/06/29 13:30:35;;;;;;;29.58;26.58;;;;;;;;;;5034396;28;20028;-64
2021/06/29 13:33:01;;;;;;;28.38;25.58;;;;;;;;;;5039482;28;20017;-63
2021/06/29 13:35:27;;;;;;;31.00;28.00;;;;;;;;;;5039411;28;20427;-63
2021/06/29 13:37:57;;;;;;;29.92;26.92;;;;;;;;;;5033900;28;20119;-63
2021/06/29 13:40:32;;;;;;;28.20;25.35;;;;;;;;;;5019622;28;20055;-63
2021/06/29 13:43:10;;;;;;;29.13;26.13;;;;;;;;;;5034074;28;20057;-63
2021/06/29 13:45:37;;;;;;;28.88;25.85;;;;;;;;;;5033780;28;20112;-60
2021/06/29 13:48:04;;;;;;;28.83;26.03;;;;;;;;;;5034492;28;20044;-60
2021/06/29 13:50:35;;;;;;;28.55;25.65;;;;;;;;;;5034439;28;20032;-60
2021/06/29 13:53:02;;;;;;;27.20;24.50;;;;;;;;;;4686415;28;9999986;-60
2021/06/29 13:55:35;;;;;;;28.13;25.23;;;;;;;;;;5031243;28;20025;-61
2021/06/29 13:58:19;;;;;;;28.05;25.35;;;;;;;;;;5032629;28;20179;-59
2021/06/29 14:00:46;;;;;;;29.17;26.40;;;;;;;;;;5032497;28;20087;-60
2021/06/29 14:03:16;;;;;;;28.50;25.67;;;;;;;;;;5032756;28;20036;-61
2021/06/29 14:05:43;;;;;;;29.27;26.35;;;;;;;;;;5030824;28;20041;-61
2021/06/29 14:08:10;;;;;;;29.23;26.33;;;;;;;;;;5033642;28;20044;-61
2021/06/29 14:10:36;;;;;;;30.27;27.08;;;;;;;;;;5031814;28;20131;-61
2021/06/29 14:13:03;;;;;;;29.42;26.48;;;;;;;;;;5034633;28;20025;-61
2021/06/29 14:15:29;;;;;;;26.15;23.55;;;;;;;;;;5034692;28;20401;-62
2021/06/29 14:17:55;;;;;;;26.48;23.88;;;;;;;;;;5036457;28;20170;-61
2021/06/29 14:20:21;;;;;;;28.35;25.35;;;;;;;;;;5035084;28;20053;-61
2021/06/29 14:22:47;;;;;;;28.17;25.45;;;;;;;;;;5034994;28;20378;-59